createdAt,value
2023-01-03T00:01:32.010Z,100850.09
2023-01-03T00:03:35.952Z,100843.06
2023-01-03T00:05:40.420Z,100837.81
2023-01-03T00:07:44.221Z,100830.97
2023-01-03T00:09:48.426Z,100824.94
2023-01-03T00:12:11.817Z,100824.16
2023-01-03T00:14:19.030Z,100829.28
2023-01-03T00:16:23.363Z,100809.97
2023-01-03T00:18:30.529Z,100788.63
2023-01-03T00:20:36.154Z,100788.16
2023-01-03T00:22:40.408Z,100770.28
2023-01-03T00:24:44.642Z,100771.84
2023-01-03T00:26:48.697Z,100753.78
2023-01-03T00:28:53.069Z,100728.06
2023-01-03T00:30:57.288Z,100741.81
2023-01-03T00:33:01.813Z,100737.19
2023-01-03T00:35:09.129Z,100728.22
2023-01-03T00:37:13.637Z,100707.88
2023-01-03T00:39:18.816Z,100716.22
2023-01-03T00:41:22.833Z,100693.94
2023-01-03T00:43:33.427Z,100686.75
2023-01-03T00:45:37.298Z,100694.56
2023-01-03T00:47:41.898Z,100674.16
2023-01-03T00:49:46.021Z,100671.53
2023-01-03T00:51:53.995Z,100672.00
2023-01-03T00:54:00.434Z,100670.81
2023-01-03T00:56:06.053Z,100653.75
2023-01-03T00:58:10.844Z,100646.41
2023-01-03T01:00:16.122Z,100640.97
2023-01-03T01:02:22.068Z,100653.13
2023-01-03T01:04:27.680Z,100621.38
2023-01-03T01:06:36.096Z,100634.47
2023-01-03T01:08:41.475Z,100637.03
2023-01-03T01:11:02.314Z,100634.34
2023-01-03T01:13:06.969Z,100609.69
2023-01-03T01:15:12.242Z,100619.38
2023-01-03T01:17:22.368Z,100609.47
2023-01-03T01:19:29.546Z,100608.53
2023-01-03T01:21:34.056Z,100603.09
2023-01-03T01:23:41.487Z,100607.34
2023-01-03T01:25:46.192Z,100601.84
2023-01-03T01:27:50.521Z,100594.56
2023-01-03T01:29:55.133Z,100584.78
2023-01-03T01:31:59.526Z,100595.16
2023-01-03T01:34:03.909Z,100593.28
2023-01-03T01:36:09.141Z,100594.06
2023-01-03T01:38:13.743Z,100591.44
2023-01-03T01:40:20.616Z,100591.34
2023-01-03T01:42:41.935Z,100588.06
2023-01-03T01:44:56.281Z,100573.09
2023-01-03T01:47:00.486Z,100568.59
2023-01-03T01:49:06.942Z,100569.53
2023-01-03T01:51:13.200Z,100576.50
2023-01-03T01:53:20.691Z,100550.06
2023-01-03T01:55:29.624Z,100550.91
2023-01-03T01:57:34.763Z,100537.41
2023-01-03T01:59:38.630Z,100527.53
2023-01-03T02:01:45.463Z,100530.84
2023-01-03T02:03:56.738Z,100536.03
2023-01-03T02:06:02.493Z,100524.47
2023-01-03T02:08:06.805Z,100525.16
2023-01-03T02:10:11.708Z,100525.81
2023-01-03T02:12:41.968Z,100521.50
2023-01-03T02:15:00.362Z,100537.22
2023-01-03T02:17:14.732Z,100511.88
2023-01-03T02:19:38.651Z,100505.09
2023-01-03T02:21:57.619Z,100483.81
2023-01-03T02:24:37.851Z,100468.00
2023-01-03T02:26:56.265Z,100466.28
2023-01-03T02:29:40.077Z,100477.84
2023-01-03T02:31:57.965Z,100461.13
2023-01-03T02:34:11.729Z,100447.94
2023-01-03T02:36:24.187Z,100459.25
2023-01-03T02:38:37.716Z,100450.31
2023-01-03T02:40:46.558Z,100453.88
2023-01-03T02:43:02.429Z,100438.72
2023-01-03T02:45:12.830Z,100434.97
2023-01-03T02:47:22.616Z,100413.03
2023-01-03T02:49:34.721Z,100411.34
2023-01-03T02:51:43.225Z,100393.84
2023-01-03T02:53:50.620Z,100379.88
2023-01-03T02:55:59.924Z,100363.38
2023-01-03T02:58:07.611Z,100355.66
2023-01-03T03:00:15.727Z,100344.19
2023-01-03T03:02:26.025Z,100353.13
2023-01-03T03:04:31.174Z,100339.00
2023-01-03T03:06:45.125Z,100339.75
2023-01-03T03:08:50.167Z,100340.72
2023-01-03T03:11:13.609Z,100324.53
2023-01-03T03:13:23.831Z,100310.31
2023-01-03T03:15:34.431Z,100300.59
2023-01-03T03:17:42.621Z,100309.28
2023-01-03T03:20:06.830Z,100284.63
2023-01-03T03:22:37.135Z,100283.59
2023-01-03T03:24:51.851Z,100257.88
2023-01-03T03:26:56.614Z,100251.00
2023-01-03T03:29:06.410Z,100242.25
2023-01-03T03:31:14.419Z,100247.53
2023-01-03T03:33:23.662Z,100246.50
2023-01-03T03:35:31.099Z,100241.03
2023-01-03T03:37:39.490Z,100227.94
2023-01-03T03:40:01.536Z,100234.16
2023-01-03T03:42:37.122Z,100227.09
2023-01-03T03:45:01.595Z,100217.38
2023-01-03T03:47:16.525Z,100204.31
2023-01-03T03:49:40.664Z,100199.66
2023-01-03T03:51:48.605Z,100198.84
2023-01-03T03:53:55.625Z,100196.09
2023-01-03T03:56:05.240Z,100194.22
2023-01-03T03:58:14.445Z,100184.31
2023-01-03T04:00:23.047Z,100178.78
2023-01-03T04:02:29.714Z,100177.22
2023-01-03T04:04:39.476Z,100162.16
2023-01-03T04:06:48.193Z,100174.31
2023-01-03T04:08:51.844Z,100181.25
2023-01-03T04:11:06.106Z,100180.53
2023-01-03T04:13:10.011Z,100186.63
2023-01-03T04:15:14.456Z,100191.19
2023-01-03T04:17:18.321Z,100188.44
2023-01-03T04:19:21.997Z,100185.69
2023-01-03T04:21:27.018Z,100193.63
2023-01-03T04:23:30.658Z,100201.34
2023-01-03T04:25:34.515Z,100202.00
2023-01-03T04:27:39.245Z,100209.59
2023-01-03T04:29:43.393Z,100203.38
2023-01-03T04:31:46.840Z,100201.41
2023-01-03T04:33:50.695Z,100202.03
2023-01-03T04:35:54.440Z,100201.94
2023-01-03T04:37:59.840Z,100196.38
2023-01-03T04:40:03.704Z,100183.84
2023-01-03T04:42:27.999Z,100180.91
2023-01-03T04:44:30.309Z,100189.38
2023-01-03T04:46:37.033Z,100197.09
2023-01-03T04:48:40.636Z,100193.50
2023-01-03T04:50:50.392Z,100197.81
2023-01-03T04:52:53.962Z,100201.31
2023-01-03T04:54:58.732Z,100213.59
2023-01-03T04:57:02.137Z,100207.22
2023-01-03T04:59:06.183Z,100206.41
2023-01-03T05:01:10.253Z,100225.66
2023-01-03T05:03:14.040Z,100231.75
2023-01-03T05:05:17.511Z,100242.13
2023-01-03T05:07:20.883Z,100245.69
2023-01-03T05:09:24.599Z,100236.84
2023-01-03T05:11:29.564Z,100255.03
2023-01-03T05:13:35.139Z,100260.22
2023-01-03T05:15:39.861Z,100259.06
2023-01-03T05:17:43.285Z,100256.44
2023-01-03T05:20:00.390Z,100263.31
2023-01-03T05:22:23.619Z,100269.31
2023-01-03T05:24:44.248Z,100278.00
2023-01-03T05:26:49.660Z,100288.47
2023-01-03T05:28:56.259Z,100289.19
2023-01-03T05:31:00.333Z,100282.25
2023-01-03T05:33:03.621Z,100282.31
2023-01-03T05:35:07.722Z,100285.06
2023-01-03T05:37:11.077Z,100283.41
2023-01-03T05:39:14.868Z,100268.59
2023-01-03T05:41:39.170Z,100287.19
2023-01-03T05:43:44.028Z,100267.09
2023-01-03T05:45:52.126Z,100277.66
2023-01-03T05:47:59.475Z,100268.03
2023-01-03T05:50:02.820Z,100274.16
2023-01-03T05:52:06.569Z,100282.06
2023-01-03T05:54:11.187Z,100280.38
2023-01-03T05:56:14.482Z,100285.84
2023-01-03T05:58:17.802Z,100294.72
2023-01-03T06:00:22.633Z,100287.75
2023-01-03T06:02:26.051Z,100286.06
2023-01-03T06:04:29.368Z,100286.06
2023-01-03T06:06:32.805Z,100290.56
2023-01-03T06:08:36.052Z,100284.47
2023-01-03T06:10:41.267Z,100281.81
2023-01-03T06:12:44.850Z,100292.38
2023-01-03T06:14:48.147Z,100296.81
2023-01-03T06:17:10.174Z,100287.09
2023-01-03T06:19:13.727Z,100294.09
2023-01-03T06:21:17.302Z,100282.59
2023-01-03T06:23:20.678Z,100282.47
2023-01-03T06:25:23.995Z,100290.41
2023-01-03T06:27:27.394Z,100284.34
2023-01-03T06:29:31.035Z,100294.91
2023-01-03T06:31:35.224Z,100289.84
2023-01-03T06:33:41.168Z,100296.06
2023-01-03T06:35:44.716Z,100290.97
2023-01-03T06:37:47.994Z,100304.38
2023-01-03T06:39:51.273Z,100312.31
2023-01-03T06:41:54.511Z,100307.97
2023-01-03T06:43:58.024Z,100308.91
2023-01-03T06:46:20.651Z,100305.31
2023-01-03T06:48:41.454Z,100299.28
2023-01-03T06:51:04.528Z,100298.53
2023-01-03T06:53:14.116Z,100305.78
2023-01-03T06:55:17.874Z,100308.53
2023-01-03T06:57:25.984Z,100313.91
2023-01-03T06:59:31.057Z,100311.38
2023-01-03T07:01:35.117Z,100305.31
2023-01-03T07:03:38.587Z,100310.59
2023-01-03T07:05:42.276Z,100303.47
2023-01-03T07:07:47.036Z,100312.09
2023-01-03T07:09:50.457Z,100319.19
2023-01-03T07:11:53.857Z,100313.81
2023-01-03T07:13:58.982Z,100313.72
2023-01-03T07:16:02.404Z,100311.94
2023-01-03T07:18:05.836Z,100318.88
2023-01-03T07:20:10.254Z,100309.19
2023-01-03T07:22:13.641Z,100305.69
2023-01-03T07:24:19.917Z,100299.47
2023-01-03T07:26:24.849Z,100311.63
2023-01-03T07:28:28.143Z,100297.41
2023-01-03T07:30:31.423Z,100304.38
2023-01-03T07:32:35.746Z,100304.38
2023-01-03T07:34:39.833Z,100312.19
2023-01-03T07:36:43.290Z,100306.94
2023-01-03T07:38:48.561Z,100306.72
2023-01-03T07:40:54.327Z,100297.00
2023-01-03T07:43:15.635Z,100299.63
2023-01-03T07:45:20.062Z,100298.69
2023-01-03T07:47:25.645Z,100288.25
2023-01-03T07:49:29.857Z,100286.25
2023-01-03T07:51:33.736Z,100288.81
2023-01-03T07:53:38.345Z,100284.34
2023-01-03T07:55:41.682Z,100281.72
2023-01-03T07:57:46.382Z,100287.00
2023-01-03T07:59:49.691Z,100280.00
2023-01-03T08:01:54.979Z,100277.38
2023-01-03T08:03:59.198Z,100265.97
2023-01-03T08:06:03.717Z,100272.09
2023-01-03T08:08:07.899Z,100276.44
2023-01-03T08:10:29.198Z,100265.13
2023-01-03T08:12:50.586Z,100265.13
2023-01-03T08:14:55.647Z,100270.41
2023-01-03T08:16:59.043Z,100264.28
2023-01-03T08:19:03.342Z,100264.38
2023-01-03T08:21:08.534Z,100269.66
2023-01-03T08:23:12.188Z,100256.47
2023-01-03T08:25:15.520Z,100258.16
2023-01-03T08:27:18.810Z,100254.59
2023-01-03T08:29:22.200Z,100253.63
2023-01-03T08:31:30.112Z,100254.47
2023-01-03T08:33:37.607Z,100256.06
2023-01-03T08:35:44.073Z,100263.03
2023-01-03T08:37:48.036Z,100254.16
2023-01-03T08:39:56.656Z,100242.66
2023-01-03T08:42:03.311Z,100246.03
2023-01-03T08:44:09.968Z,100238.88
2023-01-03T08:46:15.436Z,100236.03
2023-01-03T08:48:22.569Z,100232.44
2023-01-03T08:50:26.502Z,100226.97
2023-01-03T08:52:34.744Z,100226.97
2023-01-03T08:54:39.331Z,100237.34
2023-01-03T08:56:42.679Z,100232.78
2023-01-03T08:58:46.445Z,100231.75
2023-01-03T09:00:49.859Z,100229.84
2023-01-03T09:02:53.309Z,100224.31
2023-01-03T09:04:58.224Z,100226.00
2023-01-03T09:07:01.837Z,100221.44
2023-01-03T09:09:06.413Z,100211.81
2023-01-03T09:11:11.080Z,100211.81
2023-01-03T09:13:14.721Z,100218.91
2023-01-03T09:15:18.557Z,100219.75
2023-01-03T09:17:22.688Z,100215.34
2023-01-03T09:19:26.475Z,100203.91
2023-01-03T09:21:31.805Z,100201.25
2023-01-03T09:23:37.961Z,100204.75
2023-01-03T09:25:41.887Z,100191.56
2023-01-03T09:27:49.572Z,100186.16
2023-01-03T09:29:53.768Z,100181.59
2023-01-03T09:31:58.356Z,100172.75
2023-01-03T09:34:03.817Z,100193.78
2023-01-03T09:36:08.576Z,100176.13
2023-01-03T09:38:14.228Z,100163.56
2023-01-03T09:40:19.742Z,100143.06
2023-01-03T09:42:43.667Z,100142.84
2023-01-03T09:44:48.757Z,100145.28
2023-01-03T09:46:53.164Z,100143.16
2023-01-03T09:48:58.307Z,100136.00
2023-01-03T09:51:19.704Z,100134.06
2023-01-03T09:53:57.503Z,100142.94
2023-01-03T09:56:21.162Z,100127.09
2023-01-03T09:58:43.301Z,100122.56
2023-01-03T10:01:09.906Z,100117.16
2023-01-03T10:03:48.063Z,100118.84
2023-01-03T10:06:12.968Z,100106.47
2023-01-03T10:08:34.924Z,100098.53
2023-01-03T10:10:48.524Z,100098.53
2023-01-03T10:13:08.159Z,100096.66
2023-01-03T10:15:22.450Z,100093.78
2023-01-03T10:17:35.275Z,100085.44
2023-01-03T10:19:58.599Z,100079.72
2023-01-03T10:22:11.155Z,100085.28
2023-01-03T10:24:24.240Z,100075.25
2023-01-03T10:26:36.442Z,100081.13
2023-01-03T10:28:45.081Z,100079.25
2023-01-03T10:31:07.710Z,100080.72
2023-01-03T10:33:30.021Z,100071.72
2023-01-03T10:35:36.755Z,100073.41
2023-01-03T10:37:43.603Z,100075.81
2023-01-03T10:39:49.760Z,100072.44
2023-01-03T10:41:59.019Z,100072.44
2023-01-03T10:44:05.451Z,100065.47
2023-01-03T10:46:18.662Z,100061.13
2023-01-03T10:48:24.346Z,100050.56
2023-01-03T10:50:31.944Z,100046.72
2023-01-03T10:52:40.287Z,100037.84
2023-01-03T10:54:53.414Z,100024.41
2023-01-03T10:56:58.940Z,100019.81
2023-01-03T10:59:22.931Z,100006.41
2023-01-03T11:01:27.270Z,100003.41
2023-01-03T11:03:31.990Z,99988.97
2023-01-03T11:05:36.779Z,99987.91
2023-01-03T11:07:45.576Z,99982.38
2023-01-03T11:09:53.461Z,99965.31
2023-01-03T11:12:06.486Z,99955.25
2023-01-03T11:14:23.392Z,99948.63
2023-01-03T11:16:33.906Z,99947.31
2023-01-03T11:18:37.972Z,99939.03
2023-01-03T11:20:47.000Z,99946.63
2023-01-03T11:22:58.513Z,99942.78
2023-01-03T11:25:17.365Z,99931.00
2023-01-03T11:27:33.761Z,99924.50
2023-01-03T11:30:04.406Z,99913.66
2023-01-03T11:32:23.462Z,99910.91
2023-01-03T11:35:21.404Z,99905.50
2023-01-03T11:37:21.397Z,99896.56
2023-01-03T11:39:59.948Z,99878.28
2023-01-03T11:42:30.304Z,99872.03
2023-01-03T11:45:12.807Z,99870.34
2023-01-03T11:47:29.100Z,99849.03
2023-01-03T11:49:51.940Z,99854.94
2023-01-03T11:52:21.261Z,99842.41
2023-01-03T11:54:53.416Z,99842.91
2023-01-03T11:57:05.572Z,99841.69
2023-01-03T11:59:35.439Z,99830.75
2023-01-03T12:02:07.397Z,99836.63
2023-01-03T12:04:28.866Z,99831.81
2023-01-03T12:06:39.743Z,99821.81
2023-01-03T12:08:55.707Z,99832.88
2023-01-03T12:11:06.734Z,99843.13
2023-01-03T12:13:26.961Z,99827.72
2023-01-03T12:15:45.326Z,99807.56
2023-01-03T12:17:55.074Z,99815.13
2023-01-03T12:20:03.011Z,99805.72
2023-01-03T12:22:14.957Z,99789.41
2023-01-03T12:24:28.278Z,99786.28
2023-01-03T12:26:37.670Z,99788.53
2023-01-03T12:28:49.622Z,99779.94
2023-01-03T12:31:00.610Z,99787.25
2023-01-03T12:33:15.801Z,99768.88
2023-01-03T12:35:31.340Z,99776.47
2023-01-03T12:37:40.895Z,99776.06
2023-01-03T12:39:55.538Z,99762.78
2023-01-03T12:42:03.280Z,99756.38
2023-01-03T12:44:17.076Z,99756.38
2023-01-03T12:46:31.523Z,99750.13
2023-01-03T12:48:48.798Z,99753.72
2023-01-03T12:50:55.088Z,99737.94
2023-01-03T12:53:06.594Z,99737.09
2023-01-03T12:55:21.031Z,99730.97
2023-01-03T12:57:59.878Z,99732.78
2023-01-03T13:00:26.882Z,99730.13
2023-01-03T13:02:43.801Z,99717.00
2023-01-03T13:04:52.792Z,99713.34
2023-01-03T13:07:04.985Z,99717.56
2023-01-03T13:09:21.935Z,99728.16
2023-01-03T13:11:30.336Z,99722.72
2023-01-03T13:13:36.410Z,99697.63
2023-01-03T13:15:40.424Z,99679.22
2023-01-03T13:17:47.785Z,99684.41
2023-01-03T13:20:23.695Z,99691.97
2023-01-03T13:22:50.921Z,99686.66
2023-01-03T13:24:54.997Z,99683.88
2023-01-03T13:27:34.269Z,99672.28
2023-01-03T13:29:46.364Z,99674.94
2023-01-03T13:32:15.466Z,99659.84
2023-01-03T13:34:37.136Z,99666.13
2023-01-03T13:37:12.212Z,99655.50
2023-01-03T13:39:38.461Z,99660.94
2023-01-03T13:41:42.545Z,99654.81
2023-01-03T13:43:49.970Z,99659.28
2023-01-03T13:46:00.072Z,99649.66
2023-01-03T13:48:19.052Z,99664.59
2023-01-03T13:50:29.724Z,99661.94
2023-01-03T13:52:38.090Z,99660.25
2023-01-03T13:55:05.340Z,99640.00
2023-01-03T13:57:31.483Z,99650.88
2023-01-03T13:59:42.816Z,99659.69
2023-01-03T14:01:57.601Z,99666.66
2023-01-03T14:04:39.670Z,99650.63
2023-01-03T14:07:18.595Z,99656.88
2023-01-03T14:09:50.253Z,99658.44
2023-01-03T14:12:19.307Z,99671.84
2023-01-03T14:14:27.334Z,99663.06
2023-01-03T14:16:44.609Z,99664.00
2023-01-03T14:18:53.097Z,99658.72
2023-01-03T14:20:59.710Z,99648.09
2023-01-03T14:23:31.887Z,99651.56
2023-01-03T14:25:35.244Z,99645.31
2023-01-03T14:27:40.972Z,99636.38
2023-01-03T14:29:50.688Z,99633.59
2023-01-03T14:31:56.586Z,99648.53
2023-01-03T14:34:03.154Z,99632.63
2023-01-03T14:36:09.170Z,99630.78
2023-01-03T14:38:28.524Z,99631.63
2023-01-03T14:40:32.332Z,99636.69
2023-01-03T14:42:36.126Z,99642.81
2023-01-03T14:44:39.580Z,99646.06
2023-01-03T14:46:51.552Z,99634.44
2023-01-03T14:49:02.925Z,99628.03
2023-01-03T14:51:07.682Z,99614.59
2023-01-03T14:53:13.111Z,99619.91
2023-01-03T14:55:20.157Z,99618.94
2023-01-03T14:57:26.663Z,99602.06
2023-01-03T14:59:31.160Z,99612.69
2023-01-03T15:01:35.292Z,99623.16
2023-01-03T15:03:42.737Z,99623.00
2023-01-03T15:05:46.273Z,99608.63
2023-01-03T15:07:50.089Z,99612.25
2023-01-03T15:10:04.076Z,99622.75
2023-01-03T15:12:09.492Z,99605.84
2023-01-03T15:14:14.637Z,99619.09
2023-01-03T15:16:24.531Z,99629.88
2023-01-03T15:18:31.968Z,99628.19
2023-01-03T15:20:38.295Z,99621.34
2023-01-03T15:22:42.558Z,99632.06
2023-01-03T15:24:48.237Z,99628.59
2023-01-03T15:26:53.278Z,99636.56
2023-01-03T15:29:08.832Z,99639.22
2023-01-03T15:31:26.896Z,99628.75
2023-01-03T15:33:33.748Z,99638.50
2023-01-03T15:35:39.813Z,99632.50
2023-01-03T15:37:43.347Z,99644.94
2023-01-03T15:39:50.079Z,99658.22
2023-01-03T15:44:42.713Z,99649.38
2023-01-03T15:46:49.960Z,99654.00
2023-01-03T15:48:57.072Z,99637.22
2023-01-03T15:51:00.670Z,99650.63
2023-01-03T15:53:04.314Z,99645.34
2023-01-03T15:55:08.856Z,99638.34
2023-01-03T15:57:16.546Z,99640.03
2023-01-03T15:59:25.372Z,99638.91
2023-01-03T16:01:32.015Z,99634.44
2023-01-03T16:03:36.438Z,99648.44
2023-01-03T16:05:40.204Z,99645.63
2023-01-03T16:07:44.431Z,99658.75
2023-01-03T16:09:48.611Z,99640.91
2023-01-03T16:11:58.719Z,99656.53
2023-01-03T16:14:05.113Z,99672.47
2023-01-03T16:16:10.406Z,99660.88
2023-01-03T16:18:17.848Z,99673.19
2023-01-03T16:20:21.776Z,99665.22
2023-01-03T16:22:35.387Z,99658.22
2023-01-03T16:24:39.761Z,99660.16
2023-01-03T16:26:43.722Z,99677.78
2023-01-03T16:28:47.746Z,99658.50
2023-01-03T16:31:01.840Z,99674.53
2023-01-03T16:33:05.815Z,99674.44
2023-01-03T16:35:17.357Z,99666.72
2023-01-03T16:37:20.934Z,99644.25
2023-01-03T16:39:27.401Z,99661.44
2023-01-03T16:41:31.119Z,99669.00
2023-01-03T16:43:35.390Z,99666.22
2023-01-03T16:45:47.175Z,99671.53
2023-01-03T16:47:53.483Z,99668.88
2023-01-03T16:50:01.032Z,99676.84
2023-01-03T16:52:07.691Z,99672.50
2023-01-03T16:54:11.794Z,99676.84
2023-01-03T16:56:15.871Z,99684.81
2023-01-03T16:58:20.913Z,99669.69
2023-01-03T17:00:27.743Z,99666.34
2023-01-03T17:02:31.690Z,99669.97
2023-01-03T17:04:35.667Z,99666.34
2023-01-03T17:06:41.547Z,99664.53
2023-01-03T17:08:46.625Z,99660.06
2023-01-03T17:10:53.933Z,99666.06
2023-01-03T17:12:59.616Z,99676.69
2023-01-03T17:15:03.529Z,99672.22
2023-01-03T17:17:11.211Z,99673.06
2023-01-03T17:20:01.613Z,99660.06
2023-01-03T17:21:50.998Z,99659.34
2023-01-03T17:24:00.079Z,99649.03
2023-01-03T17:26:03.820Z,99659.06
2023-01-03T17:28:09.425Z,99679.47
2023-01-03T17:30:21.367Z,99662.13
2023-01-03T17:32:25.061Z,99654.31
2023-01-03T17:34:31.830Z,99657.06
2023-01-03T17:36:36.035Z,99658.22
2023-01-03T17:38:39.649Z,99652.03
2023-01-03T17:40:47.484Z,99654.00
2023-01-03T17:42:53.925Z,99659.47
2023-01-03T17:45:15.067Z,99641.72
2023-01-03T17:47:41.033Z,99654.84
2023-01-03T17:49:44.672Z,99645.34
2023-01-03T17:51:48.396Z,99631.91
2023-01-03T17:53:52.947Z,99632.78
2023-01-03T17:55:58.382Z,99625.66
2023-01-03T17:58:03.642Z,99628.44
2023-01-03T18:00:18.573Z,99624.81
2023-01-03T18:02:24.679Z,99625.50
2023-01-03T18:04:50.156Z,99629.84
2023-01-03T18:06:57.225Z,99643.69
2023-01-03T18:09:04.408Z,99640.91
2023-01-03T18:11:15.801Z,99632.66
2023-01-03T18:13:24.951Z,99623.59
2023-01-03T18:15:30.049Z,99623.59
2023-01-03T18:17:36.153Z,99634.19
2023-01-03T18:19:40.398Z,99620.09
2023-01-03T18:21:44.862Z,99629.72
2023-01-03T18:23:53.787Z,99635.03
2023-01-03T18:26:00.458Z,99644.69
2023-01-03T18:28:07.153Z,99652.66
2023-01-03T18:30:17.291Z,99649.84
2023-01-03T18:32:28.372Z,99648.75
2023-01-03T18:34:33.090Z,99644.25
2023-01-03T18:36:43.047Z,99637.16
2023-01-03T18:38:47.974Z,99649.47
2023-01-03T18:40:54.169Z,99632.81
2023-01-03T18:43:31.526Z,99641.50
2023-01-03T18:45:36.322Z,99641.59
2023-01-03T18:47:43.995Z,99656.72
2023-01-03T18:49:49.097Z,99648.75
2023-01-03T18:51:55.759Z,99646.09
2023-01-03T18:54:01.537Z,99644.41
2023-01-03T18:56:06.512Z,99629.47
2023-01-03T18:58:22.068Z,99638.41
2023-01-03T19:00:27.473Z,99610.31
2023-01-03T19:02:32.499Z,99612.25
2023-01-03T19:04:37.235Z,99609.88
2023-01-03T19:06:45.539Z,99621.59
2023-01-03T19:08:50.575Z,99613.66
2023-01-03T19:10:55.494Z,99609.31
2023-01-03T19:13:00.828Z,99607.66
2023-01-03T19:15:13.422Z,99605.13
2023-01-03T19:17:19.726Z,99613.19
2023-01-03T19:19:24.355Z,99588.50
2023-01-03T19:21:34.949Z,99602.34
2023-01-03T19:23:41.388Z,99594.50
2023-01-03T19:25:46.123Z,99587.25
2023-01-03T19:27:53.447Z,99593.38
2023-01-03T19:29:57.981Z,99602.06
2023-01-03T19:32:05.828Z,99592.28
2023-01-03T19:34:28.348Z,99591.16
2023-01-03T19:36:33.588Z,99606.84
2023-01-03T19:38:38.249Z,99602.94
2023-01-03T19:40:45.686Z,99587.69
2023-01-03T19:42:53.658Z,99588.50
2023-01-03T19:44:59.877Z,99593.81
2023-01-03T19:47:07.784Z,99586.44
2023-01-03T19:49:18.916Z,99580.16
2023-01-03T19:51:23.931Z,99573.16
2023-01-03T19:53:28.406Z,99566.88
2023-01-03T19:55:34.771Z,99565.91
2023-01-03T19:57:41.974Z,99568.56
2023-01-03T19:59:52.736Z,99555.28
2023-01-03T20:02:24.163Z,99547.31
2023-01-03T20:04:26.053Z,99573.16
2023-01-03T20:06:31.007Z,99547.56
2023-01-03T20:08:35.805Z,99541.28
2023-01-03T20:10:42.565Z,99545.78
2023-01-03T20:12:48.004Z,99540.63
2023-01-03T20:14:53.457Z,99531.66
2023-01-03T20:16:58.299Z,99548.44
2023-01-03T20:19:02.703Z,99549.97
2023-01-03T20:21:19.810Z,99534.03
2023-01-03T20:23:29.979Z,99531.50
2023-01-03T20:25:35.327Z,99541.16
2023-01-03T20:27:44.490Z,99526.09
2023-01-03T20:29:49.203Z,99533.91
2023-01-03T20:31:54.176Z,99518.13
2023-01-03T20:34:00.141Z,99530.53
2023-01-03T20:36:20.033Z,99512.91
2023-01-03T20:38:27.878Z,99522.72
2023-01-03T20:40:33.029Z,99532.66
2023-01-03T20:42:37.679Z,99541.72
2023-01-03T20:44:41.828Z,99539.63
2023-01-03T20:46:46.306Z,99548.44
2023-01-03T20:48:57.315Z,99561.56
2023-01-03T20:51:01.585Z,99537.66
2023-01-03T20:53:08.235Z,99530.38
2023-01-03T20:55:15.197Z,99537.38
2023-01-03T20:57:21.561Z,99548.72
2023-01-03T20:59:26.581Z,99525.66
2023-01-03T21:01:31.355Z,99527.34
2023-01-03T21:03:37.181Z,99535.44
2023-01-03T21:05:45.519Z,99556.94
2023-01-03T21:08:07.789Z,99537.66
2023-01-03T21:10:24.635Z,99538.63
2023-01-03T21:12:37.062Z,99556.53
2023-01-03T21:14:49.688Z,99563.38
2023-01-03T21:16:58.841Z,99562.41
2023-01-03T21:19:07.197Z,99551.78
2023-01-03T21:21:19.649Z,99569.38
2023-01-03T21:23:26.498Z,99557.09
2023-01-03T21:25:34.954Z,99557.94
2023-01-03T21:27:39.888Z,99580.84
2023-01-03T21:29:46.544Z,99570.50
2023-01-03T21:31:51.417Z,99552.63
2023-01-03T21:33:58.170Z,99565.91
2023-01-03T21:36:02.599Z,99585.31
2023-01-03T21:38:07.109Z,99566.88
2023-01-03T21:40:18.888Z,99598.59
2023-01-03T21:42:42.737Z,99619.00
2023-01-03T21:44:47.459Z,99600.41
2023-01-03T21:46:51.620Z,99602.34
2023-01-03T21:48:56.412Z,99618.44
2023-01-03T21:51:01.237Z,99619.53
2023-01-03T21:53:08.991Z,99625.13
2023-01-03T21:55:14.389Z,99624.41
2023-01-03T21:57:23.348Z,99617.44
2023-01-03T21:59:29.287Z,99626.53
2023-01-03T22:01:53.673Z,99622.03
2023-01-03T22:04:15.596Z,99632.81
2023-01-03T22:06:19.878Z,99632.81
2023-01-03T22:08:24.038Z,99638.69
2023-01-03T22:10:28.341Z,99637.97
2023-01-03T22:12:33.875Z,99640.47
2023-01-03T22:14:41.399Z,99633.38
2023-01-03T22:16:45.755Z,99638.69
2023-01-03T22:18:50.359Z,99638.69
2023-01-03T22:20:54.416Z,99641.19
2023-01-03T22:23:02.770Z,99654.47
2023-01-03T22:25:10.552Z,99658.69
2023-01-03T22:27:17.120Z,99657.00
2023-01-03T22:29:23.527Z,99654.47
2023-01-03T22:31:32.430Z,99649.56
2023-01-03T22:33:37.728Z,99647.03
2023-01-03T22:35:42.247Z,99659.47
2023-01-03T22:37:46.629Z,99655.13
2023-01-03T22:39:50.568Z,99660.44
2023-01-03T22:41:55.173Z,99664.06
2023-01-03T22:43:59.847Z,99670.25
2023-01-03T22:46:07.882Z,99676.38
2023-01-03T22:48:14.200Z,99677.34
2023-01-03T22:50:18.359Z,99658.75
2023-01-03T22:52:22.507Z,99674.69
2023-01-03T22:54:26.336Z,99676.38
2023-01-03T22:56:30.069Z,99684.19
2023-01-03T22:58:33.826Z,99681.41
2023-01-03T23:00:37.546Z,99687.56
2023-01-03T23:02:42.407Z,99691.06
2023-01-03T23:04:47.883Z,99719.72
2023-01-03T23:06:51.997Z,99702.41
2023-01-03T23:08:55.930Z,99710.78
2023-01-03T23:11:20.444Z,99716.69
2023-01-03T23:13:24.456Z,99710.41
2023-01-03T23:15:33.110Z,99704.94
2023-01-03T23:17:54.595Z,99705.09
2023-01-03T23:20:00.573Z,99704.50
2023-01-03T23:22:04.482Z,99701.03
2023-01-03T23:24:13.656Z,99709.00
2023-01-03T23:26:17.655Z,99715.41
2023-01-03T23:28:21.794Z,99711.06
2023-01-03T23:30:26.130Z,99715.84
2023-01-03T23:32:30.338Z,99728.09
2023-01-03T23:34:34.163Z,99727.41
2023-01-03T23:36:39.864Z,99727.56
2023-01-03T23:38:44.794Z,99735.66
2023-01-03T23:40:49.165Z,99726.00
2023-01-03T23:42:53.635Z,99746.38
2023-01-03T23:44:58.179Z,99736.75
2023-01-03T23:47:07.663Z,99737.59
2023-01-03T23:49:16.419Z,99749.19
2023-01-03T23:51:22.841Z,99748.50
2023-01-03T23:53:32.428Z,99760.22
2023-01-03T23:55:40.390Z,99753.22
2023-01-03T23:57:45.348Z,99737.56
2023-01-03T23:59:50.124Z,99755.28
